createdAt,value
2017-10-25T00:00:23.645Z,13.38
2017-10-25T00:01:04.242Z,13.37
2017-10-25T00:01:44.830Z,13.44
2017-10-25T00:02:25.399Z,13.37
2017-10-25T00:03:06.007Z,13.35
2017-10-25T00:03:46.628Z,13.39
2017-10-25T00:04:27.204Z,13.44
2017-10-25T00:05:07.789Z,13.39
2017-10-25T00:05:48.425Z,13.47
2017-10-25T00:06:29.014Z,13.39
2017-10-25T00:07:09.636Z,13.37
2017-10-25T00:07:50.221Z,13.38
2017-10-25T00:08:30.792Z,13.44
2017-10-25T00:09:11.393Z,13.44
2017-10-25T00:09:52.008Z,13.44
2017-10-25T00:10:32.590Z,13.42
2017-10-25T00:11:13.163Z,13.37
2017-10-25T00:11:53.723Z,13.41
2017-10-25T00:12:34.353Z,13.31
2017-10-25T00:13:14.941Z,13.41
2017-10-25T00:13:55.513Z,13.38
2017-10-25T00:14:36.132Z,13.27
2017-10-25T00:15:16.724Z,13.35
2017-10-25T00:15:57.309Z,13.31
2017-10-25T00:16:37.917Z,13.37
2017-10-25T00:17:18.555Z,13.44
2017-10-25T00:17:59.143Z,13.41
2017-10-25T00:18:39.717Z,13.39
2017-10-25T00:19:20.307Z,13.33
2017-10-25T00:20:00.906Z,13.39
2017-10-25T00:20:41.561Z,13.41
2017-10-25T00:21:22.195Z,13.35
2017-10-25T00:22:02.817Z,13.38
2017-10-25T00:22:43.446Z,13.39
2017-10-25T00:23:24.035Z,13.35
2017-10-25T00:24:04.620Z,13.35
2017-10-25T00:24:45.231Z,13.35
2017-10-25T00:25:25.831Z,13.38
2017-10-25T00:26:06.424Z,13.35
2017-10-25T00:26:47.015Z,13.35
2017-10-25T00:27:27.640Z,13.42
2017-10-25T00:28:08.235Z,13.37
2017-10-25T00:28:48.911Z,13.37
2017-10-25T00:29:29.499Z,13.38
2017-10-25T00:30:10.129Z,13.35
2017-10-25T00:30:50.753Z,13.38
2017-10-25T00:31:31.349Z,13.37
2017-10-25T00:32:11.963Z,13.41
2017-10-25T00:32:52.560Z,13.33
2017-10-25T00:33:33.160Z,13.37
2017-10-25T00:34:13.751Z,13.39
2017-10-25T00:34:54.364Z,13.41
2017-10-25T00:35:35.009Z,13.35
2017-10-25T00:36:15.632Z,13.39
2017-10-25T00:36:56.240Z,13.35
2017-10-25T00:37:36.820Z,13.35
2017-10-25T00:38:17.414Z,13.41
2017-10-25T00:38:57.971Z,13.41
2017-10-25T00:39:38.574Z,13.38
2017-10-25T00:40:19.165Z,13.35
2017-10-25T00:40:59.758Z,13.38
2017-10-25T00:41:40.345Z,13.35
2017-10-25T00:42:20.940Z,13.41
2017-10-25T00:43:01.553Z,13.38
2017-10-25T00:43:42.147Z,13.38
2017-10-25T00:44:22.737Z,13.39
2017-10-25T00:45:03.314Z,13.38
2017-10-25T00:45:43.887Z,13.38
2017-10-25T00:46:24.483Z,13.46
2017-10-25T00:47:05.060Z,13.38
2017-10-25T00:47:45.626Z,13.37
2017-10-25T00:48:26.191Z,13.37
2017-10-25T00:49:06.782Z,13.39
2017-10-25T00:49:47.361Z,13.35
2017-10-25T00:50:27.959Z,13.38
2017-10-25T00:51:08.536Z,13.38
2017-10-25T00:51:49.125Z,13.39
2017-10-25T00:52:29.709Z,13.39
2017-10-25T00:53:10.289Z,13.38
2017-10-25T00:53:50.880Z,13.38
2017-10-25T00:54:31.452Z,13.37
2017-10-25T00:55:12.029Z,13.38
2017-10-25T00:55:52.612Z,13.41
2017-10-25T00:56:33.212Z,13.38
2017-10-25T00:57:13.790Z,13.39
2017-10-25T00:57:54.391Z,13.37
2017-10-25T00:58:34.978Z,13.44
2017-10-25T00:59:15.549Z,13.47
2017-10-25T00:59:56.166Z,13.39
2017-10-25T01:00:36.750Z,13.46
2017-10-25T01:01:17.353Z,13.37
2017-10-25T01:01:57.974Z,13.38
2017-10-25T01:02:38.546Z,13.39
2017-10-25T01:03:19.165Z,13.42
2017-10-25T01:03:59.762Z,13.37
2017-10-25T01:04:40.368Z,13.33
2017-10-25T01:05:20.962Z,13.35
2017-10-25T01:06:01.532Z,13.39
2017-10-25T01:06:42.138Z,13.41
2017-10-25T01:07:22.714Z,13.39
2017-10-25T01:08:03.329Z,13.46
2017-10-25T01:08:43.923Z,13.39
2017-10-25T01:09:24.528Z,13.37
2017-10-25T01:10:05.127Z,13.41
2017-10-25T01:10:45.767Z,13.39
2017-10-25T01:11:26.357Z,13.39
2017-10-25T01:12:06.926Z,13.38
2017-10-25T01:12:47.513Z,13.37
2017-10-25T01:13:28.118Z,13.44
2017-10-25T01:14:08.689Z,13.37
2017-10-25T01:14:49.305Z,13.44
2017-10-25T01:15:29.894Z,13.44
2017-10-25T01:16:10.496Z,13.39
2017-10-25T01:16:51.094Z,13.44
2017-10-25T01:17:31.715Z,13.46
2017-10-25T01:18:12.329Z,13.39
2017-10-25T01:18:52.926Z,13.38
2017-10-25T01:19:33.547Z,13.33
2017-10-25T01:20:14.176Z,13.44
2017-10-25T01:20:54.785Z,13.38
2017-10-25T01:21:35.361Z,13.38
2017-10-25T01:22:15.940Z,13.38
2017-10-25T01:22:56.552Z,13.37
2017-10-25T01:23:37.167Z,13.39
2017-10-25T01:24:17.785Z,13.38
2017-10-25T01:24:58.354Z,13.39
2017-10-25T01:25:38.929Z,13.38
2017-10-25T01:26:19.502Z,13.35
2017-10-25T01:27:00.081Z,13.41
2017-10-25T01:27:40.700Z,13.35
2017-10-25T01:28:21.276Z,13.44
2017-10-25T01:29:01.855Z,13.41
2017-10-25T01:29:42.448Z,13.46
2017-10-25T01:30:23.024Z,13.38
2017-10-25T01:31:03.603Z,13.44
2017-10-25T01:31:44.213Z,13.38
2017-10-25T01:32:24.803Z,13.38
2017-10-25T01:33:05.409Z,13.37
2017-10-25T01:33:46.016Z,13.42
2017-10-25T01:34:26.631Z,13.41
2017-10-25T01:35:07.200Z,13.39
2017-10-25T01:35:47.788Z,13.41
2017-10-25T01:36:28.374Z,13.37
2017-10-25T01:37:09.003Z,13.42
2017-10-25T01:37:49.589Z,13.54
2017-10-25T01:38:30.167Z,13.38
2017-10-25T01:39:10.784Z,13.38
2017-10-25T01:39:51.376Z,13.52
2017-10-25T01:40:32.001Z,13.49
2017-10-25T01:41:12.562Z,13.42
2017-10-25T01:41:53.200Z,13.39
2017-10-25T01:42:33.774Z,13.38
2017-10-25T01:43:14.397Z,13.49
2017-10-25T01:43:54.987Z,13.42
2017-10-25T01:44:35.604Z,13.39
2017-10-25T01:45:16.178Z,13.52
2017-10-25T01:45:56.744Z,13.41
2017-10-25T01:46:37.307Z,13.44
2017-10-25T01:47:17.865Z,13.42
2017-10-25T01:47:58.443Z,13.46
2017-10-25T01:48:39.010Z,13.42
2017-10-25T01:49:19.604Z,13.47
2017-10-25T01:50:00.192Z,13.35
2017-10-25T01:50:40.777Z,13.38
2017-10-25T01:51:21.346Z,13.35
2017-10-25T01:52:01.953Z,13.5
2017-10-25T01:52:42.520Z,13.44
2017-10-25T01:53:23.092Z,13.38
2017-10-25T01:54:03.665Z,13.47
2017-10-25T01:54:44.283Z,13.46
2017-10-25T01:55:24.876Z,13.49
2017-10-25T01:56:05.466Z,13.46
2017-10-25T01:56:46.036Z,13.5
2017-10-25T01:57:26.633Z,13.47
2017-10-25T01:58:07.227Z,13.37
2017-10-25T01:58:47.805Z,13.46
2017-10-25T01:59:28.391Z,13.5
2017-10-25T02:00:08.980Z,13.44
2017-10-25T02:00:49.586Z,13.44
2017-10-25T02:01:30.135Z,13.47
2017-10-25T02:02:10.740Z,13.41
2017-10-25T02:02:51.333Z,13.42
2017-10-25T02:03:31.904Z,13.41
2017-10-25T02:04:12.486Z,13.39
2017-10-25T02:04:53.072Z,13.41
2017-10-25T02:05:33.652Z,13.57
2017-10-25T02:06:14.243Z,13.47
2017-10-25T02:06:54.804Z,13.44
2017-10-25T02:07:35.373Z,13.5
2017-10-25T02:08:15.943Z,13.5
2017-10-25T02:08:56.546Z,13.46
2017-10-25T02:09:37.128Z,13.42
2017-10-25T02:10:17.739Z,13.49
2017-10-25T02:10:58.314Z,13.41
2017-10-25T02:11:38.883Z,13.5
2017-10-25T02:12:19.472Z,13.52
2017-10-25T02:13:00.057Z,13.57
2017-10-25T02:13:40.639Z,13.42
2017-10-25T02:14:21.209Z,13.47
2017-10-25T02:15:01.782Z,13.49
2017-10-25T02:15:42.378Z,13.47
2017-10-25T02:16:22.952Z,13.44
2017-10-25T02:17:03.566Z,13.52
2017-10-25T02:17:44.127Z,13.52
2017-10-25T02:18:24.699Z,13.47
2017-10-25T02:19:05.288Z,13.53
2017-10-25T02:19:45.857Z,13.52
2017-10-25T02:20:26.512Z,13.53
2017-10-25T02:21:07.102Z,13.53
2017-10-25T02:21:47.669Z,13.49
2017-10-25T02:22:28.271Z,13.5
2017-10-25T02:23:08.842Z,13.53
2017-10-25T02:23:49.432Z,13.5
2017-10-25T02:24:30.124Z,13.53
2017-10-25T02:25:10.864Z,13.46
2017-10-25T02:25:51.750Z,13.53
2017-10-25T02:26:32.538Z,13.46
2017-10-25T02:27:13.320Z,13.46
2017-10-25T02:27:54.184Z,13.5
2017-10-25T02:28:35.123Z,13.5
2017-10-25T02:29:15.880Z,13.47
2017-10-25T02:29:56.855Z,13.53
2017-10-25T02:30:37.620Z,13.52
2017-10-25T02:31:18.522Z,13.47
2017-10-25T02:32:00.136Z,13.5
2017-10-25T02:32:40.850Z,13.47
2017-10-25T02:33:21.839Z,13.44
2017-10-25T02:34:02.428Z,13.47
2017-10-25T02:34:43.019Z,13.46
2017-10-25T02:35:23.612Z,13.46
2017-10-25T02:36:04.216Z,13.44
2017-10-25T02:36:44.820Z,13.5
2017-10-25T02:37:25.413Z,13.5
2017-10-25T02:38:06.034Z,13.44
2017-10-25T02:38:46.615Z,13.47
2017-10-25T02:39:27.200Z,13.52
2017-10-25T02:40:07.850Z,13.5
2017-10-25T02:40:48.426Z,13.53
2017-10-25T02:41:29.021Z,13.53
2017-10-25T02:42:09.648Z,13.52
2017-10-25T02:42:50.228Z,13.47
2017-10-25T02:43:30.873Z,13.46
2017-10-25T02:44:11.742Z,13.46
2017-10-25T02:44:52.504Z,13.49
2017-10-25T02:45:33.194Z,13.47
2017-10-25T02:46:14.065Z,13.47
2017-10-25T02:46:54.831Z,13.39
2017-10-25T02:47:35.453Z,13.47
2017-10-25T02:48:16.373Z,13.47
2017-10-25T02:48:57.005Z,13.47
2017-10-25T02:49:37.917Z,13.54
2017-10-25T02:50:18.819Z,13.44
2017-10-25T02:50:59.607Z,13.54
2017-10-25T02:51:40.344Z,13.5
2017-10-25T02:52:21.023Z,13.5
2017-10-25T02:53:01.656Z,13.56
2017-10-25T02:53:42.257Z,13.54
2017-10-25T02:54:22.848Z,13.53
2017-10-25T02:55:03.429Z,13.42
2017-10-25T02:55:44.028Z,13.57
2017-10-25T02:56:24.659Z,13.53
2017-10-25T02:57:05.284Z,13.46
2017-10-25T02:57:45.876Z,13.46
2017-10-25T02:58:26.459Z,13.59
2017-10-25T02:59:07.203Z,13.46
2017-10-25T02:59:48.005Z,13.53
2017-10-25T03:00:28.951Z,13.56
2017-10-25T03:01:09.687Z,13.54
2017-10-25T03:01:50.507Z,13.59
2017-10-25T03:02:31.367Z,13.6
2017-10-25T03:03:12.210Z,13.56
2017-10-25T03:03:52.979Z,13.57
2017-10-25T03:04:33.718Z,13.56
2017-10-25T03:05:14.573Z,13.57
2017-10-25T03:05:55.320Z,13.62
2017-10-25T03:06:35.962Z,13.62
2017-10-25T03:07:16.669Z,13.59
2017-10-25T03:07:57.325Z,13.57
2017-10-25T03:08:37.966Z,13.59
2017-10-25T03:09:18.551Z,13.59
2017-10-25T03:09:59.142Z,13.57
2017-10-25T03:10:39.738Z,13.57
2017-10-25T03:11:20.448Z,13.59
2017-10-25T03:12:01.067Z,13.6
2017-10-25T03:12:41.713Z,13.57
2017-10-25T03:13:22.336Z,13.56
2017-10-25T03:14:02.934Z,13.59
2017-10-25T03:14:43.537Z,13.56
2017-10-25T03:15:24.177Z,13.56
2017-10-25T03:16:04.782Z,13.62
2017-10-25T03:16:45.369Z,13.62
2017-10-25T03:17:25.963Z,13.54
2017-10-25T03:18:06.558Z,13.57
2017-10-25T03:18:47.155Z,13.57
2017-10-25T03:19:27.740Z,13.6
2017-10-25T03:20:08.371Z,13.63
2017-10-25T03:20:48.994Z,13.6
2017-10-25T03:21:29.630Z,13.54
2017-10-25T03:22:10.233Z,13.57
2017-10-25T03:22:50.837Z,13.62
2017-10-25T03:23:31.428Z,13.57
2017-10-25T03:24:12.067Z,13.54
2017-10-25T03:24:52.681Z,13.57
2017-10-25T03:25:33.287Z,13.57
2017-10-25T03:26:13.862Z,13.59
2017-10-25T03:26:54.486Z,13.62
2017-10-25T03:27:35.177Z,13.52
2017-10-25T03:28:15.762Z,13.6
2017-10-25T03:28:56.334Z,13.65
2017-10-25T03:29:36.902Z,13.63
2017-10-25T03:30:17.495Z,13.6
2017-10-25T03:30:58.065Z,13.68
2017-10-25T03:31:38.657Z,13.53
2017-10-25T03:32:19.236Z,13.57
2017-10-25T03:32:59.842Z,13.6
2017-10-25T03:33:40.417Z,13.63
2017-10-25T03:34:21.049Z,13.6
2017-10-25T03:35:01.643Z,13.65
2017-10-25T03:35:42.256Z,13.62
2017-10-25T03:36:22.832Z,13.68
2017-10-25T03:37:03.411Z,13.63
2017-10-25T03:37:44.029Z,13.54
2017-10-25T03:38:24.619Z,13.6
2017-10-25T03:39:05.202Z,13.65
2017-10-25T03:39:45.793Z,13.63
2017-10-25T03:40:26.375Z,13.62
2017-10-25T03:41:06.965Z,13.59
2017-10-25T03:41:47.562Z,13.62
2017-10-25T03:42:28.168Z,13.6
2017-10-25T03:43:08.789Z,13.63
2017-10-25T03:43:49.353Z,13.57
2017-10-25T03:44:29.947Z,13.57
2017-10-25T03:45:10.522Z,13.57
2017-10-25T03:45:51.114Z,13.57
2017-10-25T03:46:31.738Z,13.62
2017-10-25T03:47:12.357Z,13.59
2017-10-25T03:47:52.960Z,13.63
2017-10-25T03:48:33.537Z,13.6
2017-10-25T03:49:14.168Z,13.59
2017-10-25T03:49:54.746Z,13.6
2017-10-25T03:50:35.353Z,13.59
2017-10-25T03:51:15.948Z,13.57
2017-10-25T03:51:56.538Z,13.57
2017-10-25T03:52:37.158Z,13.56
2017-10-25T03:53:17.749Z,13.6
2017-10-25T03:53:58.370Z,13.57
2017-10-25T03:54:38.988Z,13.59
2017-10-25T03:55:19.572Z,13.57
2017-10-25T03:56:00.189Z,13.54
2017-10-25T03:56:40.767Z,13.62
2017-10-25T03:57:21.427Z,13.59
2017-10-25T03:58:02.081Z,13.59
2017-10-25T03:58:42.694Z,13.62
2017-10-25T03:59:23.291Z,13.67
2017-10-25T04:00:03.898Z,13.57
2017-10-25T04:00:44.538Z,13.56
2017-10-25T04:01:25.138Z,13.56
2017-10-25T04:02:05.739Z,13.6
2017-10-25T04:02:46.380Z,13.6
2017-10-25T04:03:26.980Z,13.6
2017-10-25T04:04:07.517Z,13.63
2017-10-25T04:04:48.156Z,13.63
2017-10-25T04:05:28.739Z,13.57
2017-10-25T04:06:09.373Z,13.62
2017-10-25T04:06:49.937Z,13.57
2017-10-25T04:07:30.525Z,13.59
2017-10-25T04:08:11.108Z,13.63
2017-10-25T04:08:51.688Z,13.63
2017-10-25T04:09:32.288Z,13.67
2017-10-25T04:10:12.866Z,13.62
2017-10-25T04:10:53.467Z,13.54
2017-10-25T04:11:34.054Z,13.6
2017-10-25T04:12:14.643Z,13.6
2017-10-25T04:12:55.248Z,13.57
2017-10-25T04:13:35.838Z,13.65
2017-10-25T04:14:16.455Z,13.65
2017-10-25T04:14:57.052Z,13.62
2017-10-25T04:15:37.656Z,13.63
2017-10-25T04:16:18.224Z,13.65
2017-10-25T04:16:58.799Z,13.59
2017-10-25T04:17:39.417Z,13.62
2017-10-25T04:18:20.008Z,13.63
2017-10-25T04:19:00.671Z,13.63
2017-10-25T04:19:41.243Z,13.65
2017-10-25T04:20:21.882Z,13.62
2017-10-25T04:21:02.452Z,13.65
2017-10-25T04:21:43.033Z,13.6
2017-10-25T04:22:23.626Z,13.6
2017-10-25T04:23:04.229Z,13.67
2017-10-25T04:23:44.797Z,13.65
2017-10-25T04:24:25.434Z,13.62
2017-10-25T04:25:06.003Z,13.6
2017-10-25T04:25:46.588Z,13.65
2017-10-25T04:26:27.164Z,13.67
2017-10-25T04:27:07.748Z,13.67
2017-10-25T04:27:48.319Z,13.62
2017-10-25T04:28:28.876Z,13.57
2017-10-25T04:29:09.440Z,13.67
2017-10-25T04:29:50.012Z,13.53
2017-10-25T04:30:30.653Z,13.6
2017-10-25T04:31:11.245Z,13.67
2017-10-25T04:31:51.839Z,13.7
2017-10-25T04:32:32.437Z,13.65
2017-10-25T04:33:13.033Z,13.67
2017-10-25T04:33:53.634Z,13.62
2017-10-25T04:34:34.221Z,13.62
2017-10-25T04:35:14.817Z,13.65
2017-10-25T04:35:55.425Z,13.68
2017-10-25T04:36:36.042Z,13.68
2017-10-25T04:37:16.632Z,13.68
2017-10-25T04:37:57.221Z,13.67
2017-10-25T04:38:37.852Z,13.71
2017-10-25T04:39:18.445Z,13.65
2017-10-25T04:39:59.044Z,13.6
2017-10-25T04:40:39.626Z,13.74
2017-10-25T04:41:20.243Z,13.71
2017-10-25T04:42:00.843Z,13.68
2017-10-25T04:42:41.439Z,13.68
2017-10-25T04:43:22.032Z,13.65
2017-10-25T04:44:02.600Z,13.7
2017-10-25T04:44:43.202Z,13.72
2017-10-25T04:45:23.789Z,13.72
2017-10-25T04:46:04.362Z,13.68
2017-10-25T04:46:44.947Z,13.72
2017-10-25T04:47:25.522Z,13.72
2017-10-25T04:48:06.109Z,13.67
2017-10-25T04:48:46.717Z,13.77
2017-10-25T04:49:27.358Z,13.78
2017-10-25T04:50:07.967Z,13.71
2017-10-25T04:50:48.621Z,13.74
2017-10-25T04:51:29.281Z,13.75
2017-10-25T04:52:09.940Z,13.77
2017-10-25T04:52:50.651Z,13.79
2017-10-25T04:53:31.303Z,13.71
2017-10-25T04:54:12.175Z,13.74
2017-10-25T04:54:52.835Z,13.75
2017-10-25T04:55:33.730Z,13.71
2017-10-25T04:56:14.897Z,13.78
2017-10-25T04:56:55.962Z,13.77
2017-10-25T04:57:36.618Z,13.68
2017-10-25T04:58:17.618Z,13.77
2017-10-25T04:58:58.281Z,13.78
2017-10-25T04:59:39.296Z,13.7
2017-10-25T05:00:19.926Z,13.79
2017-10-25T05:01:00.525Z,13.71
2017-10-25T05:01:41.130Z,13.78
2017-10-25T05:02:21.718Z,13.79
2017-10-25T05:03:02.363Z,13.71
2017-10-25T05:03:43.459Z,13.74
2017-10-25T05:04:24.211Z,13.72
2017-10-25T05:05:05.010Z,13.79
2017-10-25T05:05:45.767Z,13.75
2017-10-25T05:06:26.357Z,13.74
2017-10-25T05:07:06.931Z,13.79
2017-10-25T05:07:47.541Z,13.81
2017-10-25T05:08:28.138Z,13.74
2017-10-25T05:09:08.736Z,13.79
2017-10-25T05:09:49.298Z,13.74
2017-10-25T05:10:29.906Z,13.77
2017-10-25T05:11:10.501Z,13.75
2017-10-25T05:11:51.063Z,13.72
2017-10-25T05:12:31.654Z,13.72
2017-10-25T05:13:12.242Z,13.83
2017-10-25T05:13:52.863Z,13.83
2017-10-25T05:14:33.453Z,13.75
2017-10-25T05:15:14.067Z,13.79
2017-10-25T05:15:54.673Z,13.78
2017-10-25T05:16:35.291Z,13.85
2017-10-25T05:17:15.864Z,13.79
2017-10-25T05:17:56.456Z,13.83
2017-10-25T05:18:37.049Z,13.79
2017-10-25T05:19:17.655Z,13.85
2017-10-25T05:19:58.296Z,13.77
2017-10-25T05:20:38.945Z,13.77
2017-10-25T05:21:19.539Z,13.79
2017-10-25T05:22:00.168Z,13.78
2017-10-25T05:22:40.738Z,13.79
2017-10-25T05:23:21.355Z,13.79
2017-10-25T05:24:01.948Z,13.77
2017-10-25T05:24:42.607Z,13.78
2017-10-25T05:25:23.191Z,13.78
2017-10-25T05:26:03.777Z,13.83
2017-10-25T05:26:44.389Z,13.83
2017-10-25T05:27:25.021Z,13.89
2017-10-25T05:28:05.658Z,13.95
2017-10-25T05:28:46.285Z,13.92
2017-10-25T05:29:26.986Z,13.86
2017-10-25T05:30:07.700Z,13.87
2017-10-25T05:30:48.488Z,13.9
2017-10-25T05:31:29.107Z,13.87
2017-10-25T05:32:09.745Z,13.9
2017-10-25T05:32:50.324Z,13.93
2017-10-25T05:33:30.932Z,13.95
2017-10-25T05:34:11.545Z,13.9
2017-10-25T05:34:52.183Z,13.86
2017-10-25T05:35:32.949Z,13.87
2017-10-25T05:36:13.678Z,13.89
2017-10-25T05:36:54.323Z,13.92
2017-10-25T05:37:34.924Z,13.87
2017-10-25T05:38:15.525Z,13.95
2017-10-25T05:38:56.189Z,13.9
2017-10-25T05:39:36.804Z,13.89
2017-10-25T05:40:17.531Z,13.92
2017-10-25T05:40:58.242Z,13.86
2017-10-25T05:41:39.096Z,13.89
2017-10-25T05:42:19.796Z,13.87
2017-10-25T05:43:00.525Z,13.9
2017-10-25T05:43:41.191Z,13.87
2017-10-25T05:44:22.079Z,13.95
2017-10-25T05:45:02.678Z,13.86
2017-10-25T05:45:43.447Z,13.9
2017-10-25T05:46:24.236Z,13.92
2017-10-25T05:47:04.935Z,13.9
2017-10-25T05:47:45.784Z,13.93
2017-10-25T05:48:26.459Z,13.89
2017-10-25T05:49:07.046Z,13.92
2017-10-25T05:49:47.688Z,13.86
2017-10-25T05:50:28.270Z,13.95
2017-10-25T05:51:08.857Z,13.86
2017-10-25T05:51:49.465Z,13.92
2017-10-25T05:52:30.040Z,13.85
2017-10-25T05:53:10.644Z,13.87
2017-10-25T05:53:51.277Z,13.89
2017-10-25T05:54:31.917Z,13.89
2017-10-25T05:55:12.565Z,13.89
2017-10-25T05:55:53.151Z,13.9
2017-10-25T05:56:33.747Z,13.93
2017-10-25T05:57:14.344Z,13.93
2017-10-25T05:57:54.973Z,13.87
2017-10-25T05:58:35.552Z,13.9
2017-10-25T05:59:16.186Z,13.89
2017-10-25T05:59:56.801Z,13.86
2017-10-25T06:00:37.396Z,13.92
2017-10-25T06:01:17.982Z,13.92
2017-10-25T06:01:58.606Z,13.89
2017-10-25T06:02:39.257Z,13.89
2017-10-25T06:03:19.867Z,13.87
2017-10-25T06:04:00.448Z,13.85
2017-10-25T06:04:41.006Z,13.9
2017-10-25T06:05:21.570Z,13.92
2017-10-25T06:06:02.148Z,13.92
2017-10-25T06:06:42.738Z,13.87
2017-10-25T06:07:23.342Z,13.99
2017-10-25T06:08:03.926Z,13.92
2017-10-25T06:08:44.514Z,13.93
2017-10-25T06:09:25.109Z,13.9
2017-10-25T06:10:05.687Z,13.92
2017-10-25T06:10:46.279Z,13.85
2017-10-25T06:11:26.945Z,13.89
2017-10-25T06:12:07.514Z,13.9
2017-10-25T06:12:48.116Z,13.89
2017-10-25T06:13:28.685Z,13.89
2017-10-25T06:14:09.277Z,13.9
2017-10-25T06:14:49.875Z,13.92
2017-10-25T06:15:30.470Z,13.93
2017-10-25T06:16:11.068Z,13.96
2017-10-25T06:16:51.659Z,13.9
2017-10-25T06:17:32.248Z,13.9
2017-10-25T06:18:12.821Z,14
2017-10-25T06:18:53.413Z,13.95
2017-10-25T06:19:33.959Z,13.97
2017-10-25T06:20:14.552Z,13.89
2017-10-25T06:20:55.128Z,14.04
2017-10-25T06:21:35.734Z,13.95
2017-10-25T06:22:16.367Z,13.97
2017-10-25T06:22:56.973Z,14.03
2017-10-25T06:23:37.563Z,13.92
2017-10-25T06:24:18.142Z,13.9
2017-10-25T06:24:58.734Z,14.05
2017-10-25T06:25:39.307Z,13.99
2017-10-25T06:26:19.897Z,14
2017-10-25T06:27:00.481Z,13.97
2017-10-25T06:27:41.066Z,14.08
2017-10-25T06:28:21.661Z,14.07
2017-10-25T06:29:02.226Z,14
2017-10-25T06:29:42.857Z,13.95
2017-10-25T06:30:23.438Z,14.04
2017-10-25T06:31:04.034Z,13.99
2017-10-25T06:31:44.635Z,14.04
2017-10-25T06:32:25.247Z,13.96
2017-10-25T06:33:05.857Z,14
2017-10-25T06:33:46.429Z,14.05
2017-10-25T06:34:27.006Z,14.05
2017-10-25T06:35:07.601Z,14.05
2017-10-25T06:35:48.183Z,13.99
2017-10-25T06:36:28.752Z,14.05
2017-10-25T06:37:09.310Z,14.05
2017-10-25T06:37:49.888Z,14.08
2017-10-25T06:38:30.493Z,14.14
2017-10-25T06:39:11.071Z,14.11
2017-10-25T06:39:51.638Z,14.12
2017-10-25T06:40:32.213Z,14.14
2017-10-25T06:41:12.802Z,14.1
2017-10-25T06:41:53.414Z,14.11
2017-10-25T06:42:33.993Z,14.1
2017-10-25T06:43:14.576Z,14.11
2017-10-25T06:43:55.300Z,14.12
2017-10-25T06:44:35.922Z,14.12
2017-10-25T06:45:16.483Z,14.12
2017-10-25T06:45:57.066Z,14.15
2017-10-25T06:46:37.718Z,14.18
2017-10-25T06:47:18.300Z,14.12
2017-10-25T06:47:58.851Z,14.14
2017-10-25T06:48:39.451Z,14.1
2017-10-25T06:49:20.043Z,14.12
2017-10-25T06:50:00.614Z,14.11
2017-10-25T06:50:41.202Z,14.14
2017-10-25T06:51:21.819Z,14.18
2017-10-25T06:52:02.406Z,14.17
2017-10-25T06:52:43.027Z,14.2
2017-10-25T06:53:23.610Z,14.2
2017-10-25T06:54:04.201Z,14.2
2017-10-25T06:54:44.805Z,14.2
2017-10-25T06:55:25.388Z,14.3
2017-10-25T06:56:05.959Z,14.29
2017-10-25T06:56:46.524Z,14.32
2017-10-25T06:57:27.126Z,14.25
2017-10-25T06:58:07.728Z,14.28
2017-10-25T06:58:48.312Z,14.25
2017-10-25T06:59:28.895Z,14.22
2017-10-25T07:00:09.493Z,14.23
2017-10-25T07:00:50.059Z,14.25
2017-10-25T07:01:30.686Z,14.35
2017-10-25T07:02:11.256Z,14.17
2017-10-25T07:02:51.869Z,14.32
2017-10-25T07:03:32.440Z,14.32
2017-10-25T07:04:13.027Z,14.32
2017-10-25T07:04:53.642Z,14.33
2017-10-25T07:05:34.228Z,14.32
2017-10-25T07:06:14.785Z,14.28
2017-10-25T07:06:55.372Z,14.25
2017-10-25T07:07:35.955Z,14.32
2017-10-25T07:08:16.533Z,14.32
2017-10-25T07:08:57.184Z,14.37
2017-10-25T07:09:37.775Z,14.3
2017-10-25T07:10:18.358Z,14.32
2017-10-25T07:10:59.033Z,14.36
2017-10-25T07:11:39.616Z,14.32
2017-10-25T07:12:20.240Z,14.36
2017-10-25T07:13:00.802Z,14.32
2017-10-25T07:13:41.380Z,14.33
2017-10-25T07:14:22.014Z,14.4
2017-10-25T07:15:02.588Z,14.35
2017-10-25T07:15:43.152Z,14.37
2017-10-25T07:16:23.754Z,14.41
2017-10-25T07:17:04.360Z,14.36
2017-10-25T07:17:44.959Z,14.37
2017-10-25T07:18:25.524Z,14.43
2017-10-25T07:19:06.113Z,14.43
2017-10-25T07:19:46.692Z,14.43
2017-10-25T07:20:27.269Z,14.35
2017-10-25T07:21:07.846Z,14.53
2017-10-25T07:21:48.471Z,14.47
2017-10-25T07:22:29.053Z,14.58
2017-10-25T07:23:09.686Z,14.4
2017-10-25T07:23:50.265Z,14.5
2017-10-25T07:24:30.864Z,14.53
2017-10-25T07:25:11.435Z,14.44
2017-10-25T07:25:52.020Z,14.53
2017-10-25T07:26:32.628Z,14.5
2017-10-25T07:27:13.282Z,14.48
2017-10-25T07:27:53.861Z,14.58
2017-10-25T07:28:34.530Z,14.5
2017-10-25T07:29:15.139Z,14.51
2017-10-25T07:29:55.716Z,14.53
2017-10-25T07:30:36.311Z,14.54
2017-10-25T07:31:16.904Z,14.5
2017-10-25T07:31:57.467Z,14.5
2017-10-25T07:32:38.044Z,14.58
2017-10-25T07:33:18.630Z,14.54
2017-10-25T07:33:59.207Z,14.47
2017-10-25T07:34:39.805Z,14.45
2017-10-25T07:35:20.399Z,14.45
2017-10-25T07:36:01.013Z,14.45
2017-10-25T07:36:41.596Z,14.59
2017-10-25T07:37:22.197Z,14.54
2017-10-25T07:38:02.765Z,14.59
2017-10-25T07:38:43.382Z,14.45
2017-10-25T07:39:23.961Z,14.6
2017-10-25T07:40:04.558Z,14.5
2017-10-25T07:40:45.153Z,14.5
2017-10-25T07:41:25.726Z,14.55
2017-10-25T07:42:06.312Z,14.63
2017-10-25T07:42:46.908Z,14.55
2017-10-25T07:43:27.482Z,14.6
2017-10-25T07:44:08.075Z,14.53
2017-10-25T07:44:48.645Z,14.63
2017-10-25T07:45:29.216Z,14.58
2017-10-25T07:46:09.806Z,14.58
2017-10-25T07:46:50.380Z,14.59
2017-10-25T07:47:30.962Z,14.59
2017-10-25T07:48:11.546Z,14.55
2017-10-25T07:48:52.123Z,14.6
2017-10-25T07:49:32.725Z,14.63
2017-10-25T07:50:13.312Z,14.6
2017-10-25T07:50:53.895Z,14.72
2017-10-25T07:51:34.474Z,14.62
2017-10-25T07:52:15.053Z,14.66
2017-10-25T07:52:55.657Z,14.62
2017-10-25T07:53:36.230Z,14.66
2017-10-25T07:54:16.831Z,14.68
2017-10-25T07:54:57.400Z,14.69
2017-10-25T07:55:37.991Z,14.72
2017-10-25T07:56:18.581Z,14.73
2017-10-25T07:56:59.158Z,14.66
2017-10-25T07:57:39.746Z,14.66
2017-10-25T07:58:20.411Z,14.66
2017-10-25T07:59:01.902Z,14.69
2017-10-25T07:59:42.523Z,14.72
2017-10-25T08:00:23.144Z,14.66
2017-10-25T08:01:03.745Z,14.72
2017-10-25T08:01:44.300Z,14.81
2017-10-25T08:02:25.005Z,14.81
2017-10-25T08:03:05.998Z,14.78
2017-10-25T08:03:46.733Z,14.79
2017-10-25T08:04:27.459Z,14.77
2017-10-25T08:05:08.908Z,14.81
2017-10-25T08:05:49.550Z,14.86
2017-10-25T08:06:30.214Z,14.84
2017-10-25T08:07:10.773Z,14.88
2017-10-25T08:07:51.397Z,14.89
2017-10-25T08:08:31.990Z,14.89
2017-10-25T08:09:12.544Z,14.86
2017-10-25T08:09:53.158Z,14.84
2017-10-25T08:10:33.768Z,14.94
2017-10-25T08:11:14.350Z,14.91
2017-10-25T08:11:54.941Z,14.89
2017-10-25T08:12:35.525Z,14.96
2017-10-25T08:13:16.096Z,14.89
2017-10-25T08:13:56.757Z,14.99
2017-10-25T08:14:37.434Z,14.99
2017-10-25T08:15:18.067Z,14.96
2017-10-25T08:15:58.645Z,14.97
2017-10-25T08:16:39.221Z,15.09
2017-10-25T08:17:19.809Z,14.99
2017-10-25T08:18:00.404Z,14.94
2017-10-25T08:18:40.974Z,14.99
2017-10-25T08:19:21.566Z,15
2017-10-25T08:20:02.168Z,15
2017-10-25T08:20:42.770Z,14.97
2017-10-25T08:21:23.369Z,15.03
2017-10-25T08:22:03.940Z,15
2017-10-25T08:22:44.640Z,15.06
2017-10-25T08:23:25.210Z,15.03
2017-10-25T08:24:05.807Z,15.02
2017-10-25T08:24:46.402Z,15.09
2017-10-25T08:25:26.980Z,15.09
2017-10-25T08:26:07.580Z,15.02
2017-10-25T08:26:48.198Z,15.04
2017-10-25T08:27:28.805Z,15.03
2017-10-25T08:28:09.385Z,15.06
2017-10-25T08:28:50.018Z,15.06
2017-10-25T08:29:30.592Z,15.03
2017-10-25T08:30:11.171Z,14.94
2017-10-25T08:30:51.746Z,14.99
2017-10-25T08:31:32.320Z,14.97
2017-10-25T08:32:12.894Z,14.96
2017-10-25T08:32:53.481Z,15
2017-10-25T08:33:34.052Z,14.99
2017-10-25T08:34:14.637Z,15
2017-10-25T08:34:55.212Z,14.94
2017-10-25T08:35:35.780Z,15.02
2017-10-25T08:36:16.368Z,15
2017-10-25T08:36:56.932Z,14.97
2017-10-25T08:37:37.511Z,14.94
2017-10-25T08:38:18.112Z,15
2017-10-25T08:38:58.657Z,15
2017-10-25T08:39:39.251Z,14.96
2017-10-25T08:40:19.866Z,14.97
2017-10-25T08:41:00.411Z,14.99
2017-10-25T08:41:41.010Z,14.99
2017-10-25T08:42:21.592Z,14.99
2017-10-25T08:43:02.209Z,15.04
2017-10-25T08:43:42.783Z,14.99
2017-10-25T08:44:23.353Z,15
2017-10-25T08:45:03.923Z,15.17
2017-10-25T08:45:44.514Z,15.14